Aeroporto :
LOGIN :

Iscrizione | Disclaimer

   EN    FR    IT 

 










Sommario :    VFR   VFR Marginale   IFR   IFR Intensivo   IFR Molto Intensivo
Visibilità : 
Base nubi : 
>= 8 km
>= 3000ft
5 / 8 km
1000 / 3000 ft
1500m / 5 km
500 / 1000 ft
800 / 1500m
200 / 500 ft
< 800m
< 200 ft
Simboli :   Temporali  Nebbia  Neve Forte  Precipitazioni Forti  Vento > 20 kt
SIGMETs :   Varie  Temporali  Ghiacco  Turbolenza  Onda orograficha  Ceneri Vulcaniche







- Altitudine del aeroporto : 286 ft
- Codice IATA : FFD


EGVA - RAF Fairford

ULTIMO METAR :
  • 221456Z AUTO 22006KT M -RA BKN008 OVC015 02/01 A2949 RMK AO2 RAB07E23RAB36 BKN V OVC SLP994 P0000 60000 T00220010 57027 RVRNO $

METARs OBSOLETI :
  • 221436Z AUTO 21007KT M -RA OVC008 03/02 A2950 RMK AO2 RAB07E23RAB36 OVC V BKN CIG 007 RWY09 SLP997 RVRNO $
  • 221423Z AUTO 21004KT M M BKN008 OVC013 02/01 A2951 RMK AO2 RAB07E23 CIG 008V013 BKN V SCT CIG 007 RWY09 SLP000 RVRNO $
  • 221407Z AUTO 23005KT M -RA BKN012 OVC018 02/01 A2951 RMK AO2 RAB07 CIG 012V018 SLP000 RVRNO $
  • 221356Z AUTO 22005KT M M OVC018 02/01 A2951 RMK AO2 RAB02E52 SLP000 P0000 T00240011 RVRNO $
  • 221352Z AUTO 23005KT M M OVC018 02/01 A2952 RMK AO2 RAB02E52 SLP003 RVRNO $
  • 221342Z AUTO 23005KT M -RA FEW008 OVC018 02/01 A2952 RMK AO2 RAB02 SLP003 RVRNO $
  • 221322Z AUTO 24011KT M -RA FEW008 BKN021 BKN027 OVC034 03/01 A2953 RMK AO2 RAB02 CIG 021V035 CIG 016 RWY09 SLP006 RVRNO $
  • 221302Z AUTO 22004KT M -RA FEW030 BKN038 OVC047 04/01 A2954 RMK AO2 RAB02 SLP009 RVRNO $
  • 221241Z AUTO 22006KT M M FEW024 FEW030 SCT040 BKN048 BKN060 04/01 A2955 RMK AO2 SLP013 RVRNO $

Previsioni scadute.
Nessun NOTAM noto per questo aeroporto.
1 SIGMET conosciuto per la FIR London (EGTT) :
 
Turbolenza severa
EGTT SIGMET 02 VALID 221430/221830 EGRR
EGTT LONDON FIR SEV TURB FCST WI N5500 W00530 - N5500 W00400 - N5334 W00245 - N5124 W00151 - N5107 W00402 - N5355 W00530 - N5500 W00530 FL160/400 MOV E 15KT NC=



MetMap, La meteo Aeronautica in un colpo d'occhio ! - Copyright ORBIFLY Dicembre 2007 - Disclaimer

ORBIFLY MET'MAP TEAM :

Programmazione e sviluppo : Alexandra Zaïnal
Concezione e sviluppo : Baudouin d'Aumeries
Co-Programmazione e sviluppo : Marc-Olivier Méhu
Supporto tecnico e logistico : Manuel Goepfert
Aiuto per la traduzione : Arnaldo La Scala

Contatto : metmap@orbifly.com




FONTI E CREDITI :

   NOAA